Time;durP1;ratioP1;P1;durP2;ratioP2;P2;SDS_P1;SDS_P2;PMS_P1;PMS_P2;Temp;Humidity;BMP_temperature;BMP_pressure;BME280_temperature;BME280_humidity;BME280_pressure;Samples;Min_cycle;Max_cycle;Signal;HPM_P1;HPM_P2
2021/10/10 00:01:59;;;;;;;7.40;6.70;;;;;;;;;;5060339;28;20198;-62
2021/10/10 00:04:29;;;;;;;7.20;6.60;;;;;;;;;;5056216;28;20217;-62
2021/10/10 00:06:58;;;;;;;8.03;6.87;;;;;;;;;;5058184;28;20192;-62
2021/10/10 00:09:29;;;;;;;7.13;6.43;;;;;;;;;;5069004;28;20208;-62
2021/10/10 00:11:59;;;;;;;6.63;6.13;;;;;;;;;;5069036;28;20553;-62
2021/10/10 00:14:30;;;;;;;6.60;6.07;;;;;;;;;;5050062;28;20191;-62
2021/10/10 00:17:00;;;;;;;6.40;5.90;;;;;;;;;;5067541;28;20205;-62
2021/10/10 00:19:31;;;;;;;7.27;6.67;;;;;;;;;;5063182;28;20221;-62
2021/10/10 00:22:06;;;;;;;7.20;6.50;;;;;;;;;;5074416;28;20193;-62
2021/10/10 00:24:37;;;;;;;7.43;6.63;;;;;;;;;;5066992;28;20202;-62
2021/10/10 00:27:11;;;;;;;6.90;6.30;;;;;;;;;;5067795;28;20541;-62
2021/10/10 00:29:41;;;;;;;7.80;7.07;;;;;;;;;;5067721;28;20187;-62
2021/10/10 00:32:11;;;;;;;7.13;6.53;;;;;;;;;;5065321;28;20202;-62
2021/10/10 00:34:41;;;;;;;7.30;6.70;;;;;;;;;;5058222;28;20604;-62
2021/10/10 00:37:26;;;;;;;7.03;6.43;;;;;;;;;;5061318;28;20201;-62
2021/10/10 00:39:58;;;;;;;6.73;6.20;;;;;;;;;;5057534;28;20280;-62
2021/10/10 00:42:27;;;;;;;6.47;5.87;;;;;;;;;;5061505;28;20233;-62
2021/10/10 00:44:57;;;;;;;7.47;6.77;;;;;;;;;;5061946;28;20245;-62
2021/10/10 00:47:27;;;;;;;6.80;6.10;;;;;;;;;;5068916;28;20218;-62
2021/10/10 00:49:59;;;;;;;7.07;6.40;;;;;;;;;;5062927;28;20232;-62
2021/10/10 00:52:30;;;;;;;6.50;6.00;;;;;;;;;;5068576;28;20201;-62
2021/10/10 00:54:59;;;;;;;6.67;6.07;;;;;;;;;;5030678;28;20598;-62
2021/10/10 00:57:31;;;;;;;6.60;6.00;;;;;;;;;;5068394;28;20284;-62
2021/10/10 01:00:02;;;;;;;7.20;6.53;;;;;;;;;;5081542;28;20711;-62
2021/10/10 01:02:41;;;;;;;6.67;6.07;;;;;;;;;;5088340;28;20253;-62
2021/10/10 01:05:21;;;;;;;6.90;6.30;;;;;;;;;;5087830;28;20196;-62
2021/10/10 01:07:52;;;;;;;7.20;6.53;;;;;;;;;;5084719;28;20232;-62
2021/10/10 01:10:24;;;;;;;6.00;5.50;;;;;;;;;;5068893;28;20592;-62
2021/10/10 01:12:55;;;;;;;6.70;6.10;;;;;;;;;;5074282;28;20293;-62
2021/10/10 01:15:27;;;;;;;6.90;6.20;;;;;;;;;;5087375;28;20193;-62
2021/10/10 01:17:57;;;;;;;6.00;5.50;;;;;;;;;;5092535;28;20291;-62
2021/10/10 01:20:29;;;;;;;6.53;6.03;;;;;;;;;;5087729;28;20217;-62
2021/10/10 01:23:00;;;;;;;6.60;6.00;;;;;;;;;;5088018;28;20205;-62
2021/10/10 01:25:32;;;;;;;6.73;6.13;;;;;;;;;;5073642;28;20228;-62
2021/10/10 01:28:07;;;;;;;6.60;6.03;;;;;;;;;;5090660;28;20216;-62
2021/10/10 01:30:40;;;;;;;6.77;6.17;;;;;;;;;;5102772;27;20207;-62
2021/10/10 01:33:12;;;;;;;6.63;6.03;;;;;;;;;;5091799;28;20285;-62
2021/10/10 01:35:43;;;;;;;6.67;6.07;;;;;;;;;;5080224;28;20200;-62
2021/10/10 01:38:17;;;;;;;6.90;6.23;;;;;;;;;;5096750;28;20754;-62
2021/10/10 01:40:47;;;;;;;6.00;5.50;;;;;;;;;;5077275;28;20223;-62
2021/10/10 01:43:17;;;;;;;6.23;5.73;;;;;;;;;;5069917;28;20299;-62
2021/10/10 01:45:49;;;;;;;6.43;5.83;;;;;;;;;;5073735;28;20247;-62
2021/10/10 01:48:20;;;;;;;6.50;6.00;;;;;;;;;;5105089;27;20222;-62
2021/10/10 01:51:03;;;;;;;6.13;5.63;;;;;;;;;;5073699;28;20547;-62
2021/10/10 01:53:36;;;;;;;6.30;5.70;;;;;;;;;;5091387;28;20196;-62
2021/10/10 01:56:05;;;;;;;6.27;5.77;;;;;;;;;;5052679;28;20205;-62
2021/10/10 01:58:32;;;;;;;6.17;5.63;;;;;;;;;;5091338;28;20219;-62
2021/10/10 02:01:03;;;;;;;6.00;5.50;;;;;;;;;;5080331;28;20197;-62
2021/10/10 02:03:33;;;;;;;6.50;5.90;;;;;;;;;;5069945;28;20255;-62
2021/10/10 02:06:03;;;;;;;6.60;6.00;;;;;;;;;;5078176;28;20213;-62
2021/10/10 02:08:36;;;;;;;6.33;5.73;;;;;;;;;;5062904;28;20222;-62
2021/10/10 02:11:06;;;;;;;6.50;6.00;;;;;;;;;;5079719;28;20827;-62
2021/10/10 02:13:37;;;;;;;6.13;5.60;;;;;;;;;;5078201;28;20204;-62
2021/10/10 02:16:05;;;;;;;7.23;5.73;;;;;;;;;;5096375;28;20638;-62
2021/10/10 02:18:40;;;;;;;6.13;5.63;;;;;;;;;;5076400;28;20246;-61
2021/10/10 02:21:08;;;;;;;7.97;6.20;;;;;;;;;;5081450;28;20208;-62
2021/10/10 02:23:36;;;;;;;6.17;5.67;;;;;;;;;;5091872;28;20201;-62
2021/10/10 02:26:05;;;;;;;6.23;5.63;;;;;;;;;;5088034;28;20204;-62
2021/10/10 02:28:36;;;;;;;6.47;5.77;;;;;;;;;;5089178;28;20336;-62
2021/10/10 02:31:09;;;;;;;5.77;5.20;;;;;;;;;;5088159;28;20209;-62
2021/10/10 02:33:41;;;;;;;6.07;5.57;;;;;;;;;;5082447;28;20654;-62
2021/10/10 02:36:13;;;;;;;6.43;5.87;;;;;;;;;;5088703;28;20224;-62
2021/10/10 02:38:40;;;;;;;5.83;5.33;;;;;;;;;;5080857;28;20292;-62
2021/10/10 02:41:10;;;;;;;6.13;5.63;;;;;;;;;;5084760;28;20614;-62
2021/10/10 02:43:39;;;;;;;5.60;5.10;;;;;;;;;;5094869;28;20254;-62
2021/10/10 02:46:11;;;;;;;6.00;5.17;;;;;;;;;;5086470;28;20214;-62
2021/10/10 02:48:40;;;;;;;5.90;5.40;;;;;;;;;;5076665;28;20239;-62
2021/10/10 02:51:10;;;;;;;6.00;5.50;;;;;;;;;;5076872;28;20305;-62
2021/10/10 02:53:41;;;;;;;5.23;4.73;;;;;;;;;;5088798;28;20453;-62
2021/10/10 02:56:12;;;;;;;6.13;5.53;;;;;;;;;;5086602;28;20200;-62
2021/10/10 02:58:43;;;;;;;5.70;5.20;;;;;;;;;;5083563;28;20232;-62
2021/10/10 03:01:12;;;;;;;5.90;5.30;;;;;;;;;;5060760;28;20208;-62
2021/10/10 03:03:49;;;;;;;5.60;5.10;;;;;;;;;;5082134;28;20631;-62
2021/10/10 03:06:20;;;;;;;5.70;5.20;;;;;;;;;;5061385;28;20212;-62
2021/10/10 03:08:51;;;;;;;5.50;5.00;;;;;;;;;;5065226;28;20233;-62
2021/10/10 03:11:22;;;;;;;6.70;5.43;;;;;;;;;;5068431;28;20194;-62
2021/10/10 03:13:52;;;;;;;5.43;4.93;;;;;;;;;;5068961;28;20652;-63
2021/10/10 03:16:25;;;;;;;5.50;5.00;;;;;;;;;;5071546;28;20228;-62
2021/10/10 03:19:00;;;;;;;5.43;5.00;;;;;;;;;;5066052;28;20204;-62
2021/10/10 03:21:29;;;;;;;5.47;4.97;;;;;;;;;;5082330;28;20596;-62
2021/10/10 03:24:00;;;;;;;5.50;4.90;;;;;;;;;;5046833;28;20188;-62
2021/10/10 03:26:32;;;;;;;4.90;4.50;;;;;;;;;;5060489;28;20197;-62
2021/10/10 03:29:01;;;;;;;5.93;5.27;;;;;;;;;;5038947;28;20211;-62
2021/10/10 03:31:31;;;;;;;5.43;4.93;;;;;;;;;;5072256;28;20804;-62
2021/10/10 03:34:01;;;;;;;5.07;4.67;;;;;;;;;;5063331;28;20212;-62
2021/10/10 03:36:33;;;;;;;5.10;4.70;;;;;;;;;;5071203;28;20203;-62
2021/10/10 03:39:01;;;;;;;5.03;4.60;;;;;;;;;;5065053;28;20201;-62
2021/10/10 03:41:31;;;;;;;5.20;4.73;;;;;;;;;;5070438;28;20200;-62
2021/10/10 03:44:02;;;;;;;5.00;4.60;;;;;;;;;;5073542;28;20228;-62
2021/10/10 03:46:32;;;;;;;5.23;4.73;;;;;;;;;;5070089;28;20595;-62
2021/10/10 03:49:02;;;;;;;4.60;4.20;;;;;;;;;;5068081;28;20212;-62
2021/10/10 03:51:31;;;;;;;5.20;4.80;;;;;;;;;;5050898;28;20599;-62
2021/10/10 03:56:43;;;;;;;4.93;4.53;;;;;;;;;;5059410;28;20215;-62
2021/10/10 03:59:11;;;;;;;4.97;4.57;;;;;;;;;;5059486;28;20818;-63
2021/10/10 04:01:42;;;;;;;4.67;4.27;;;;;;;;;;5061780;28;20233;-62
2021/10/10 04:04:16;;;;;;;4.73;4.33;;;;;;;;;;5058547;28;20213;-62
2021/10/10 04:06:46;;;;;;;4.77;4.37;;;;;;;;;;5061833;28;20215;-62
2021/10/10 04:09:18;;;;;;;4.90;4.50;;;;;;;;;;5073609;28;20221;-62
2021/10/10 04:11:50;;;;;;;4.80;4.40;;;;;;;;;;5056620;28;20198;-62
2021/10/10 04:14:21;;;;;;;5.23;4.73;;;;;;;;;;5078738;28;20226;-62
2021/10/10 04:16:51;;;;;;;4.70;4.30;;;;;;;;;;5050136;28;20217;-63
2021/10/10 04:19:24;;;;;;;4.60;4.20;;;;;;;;;;5066433;28;20557;-62
2021/10/10 04:21:54;;;;;;;4.57;4.17;;;;;;;;;;5050750;28;20546;-62
2021/10/10 04:24:22;;;;;;;5.00;4.60;;;;;;;;;;5049875;28;20203;-62
2021/10/10 04:26:53;;;;;;;4.70;4.30;;;;;;;;;;5059264;28;20197;-63
2021/10/10 04:29:25;;;;;;;4.87;4.47;;;;;;;;;;5064702;28;20550;-62
2021/10/10 04:31:58;;;;;;;5.07;4.67;;;;;;;;;;5053121;28;20206;-63
2021/10/10 04:34:31;;;;;;;4.63;4.23;;;;;;;;;;5066921;28;20197;-63
2021/10/10 04:37:06;;;;;;;4.60;4.20;;;;;;;;;;5067381;28;20189;-63
2021/10/10 04:39:37;;;;;;;4.70;4.23;;;;;;;;;;5068440;28;20223;-62
2021/10/10 04:42:08;;;;;;;4.90;4.50;;;;;;;;;;5065592;28;20201;-62
2021/10/10 04:44:38;;;;;;;4.80;4.40;;;;;;;;;;5056271;28;20213;-62
2021/10/10 04:47:05;;;;;;;4.90;4.50;;;;;;;;;;5076203;28;20210;-62
2021/10/10 04:49:36;;;;;;;5.53;5.03;;;;;;;;;;5042771;28;20216;-62
2021/10/10 04:52:06;;;;;;;5.53;4.97;;;;;;;;;;5067221;28;20208;-63
2021/10/10 04:54:34;;;;;;;4.73;4.33;;;;;;;;;;5060988;28;20823;-62
2021/10/10 04:57:03;;;;;;;5.17;4.77;;;;;;;;;;5064254;28;20214;-63
2021/10/10 04:59:51;;;;;;;4.60;4.20;;;;;;;;;;5055716;28;20317;-63
2021/10/10 05:02:22;;;;;;;5.17;4.77;;;;;;;;;;5089785;28;20213;-63
2021/10/10 05:04:55;;;;;;;5.17;4.67;;;;;;;;;;5074269;28;20625;-63
2021/10/10 05:07:26;;;;;;;5.30;4.80;;;;;;;;;;5084444;28;20204;-64
2021/10/10 05:09:55;;;;;;;5.23;4.73;;;;;;;;;;5077965;28;20618;-63
2021/10/10 05:12:34;;;;;;;5.23;4.73;;;;;;;;;;5085379;28;20216;-62
2021/10/10 05:15:05;;;;;;;5.63;5.13;;;;;;;;;;5070670;28;20201;-63
2021/10/10 05:17:35;;;;;;;5.53;4.90;;;;;;;;;;5078637;28;20200;-64
2021/10/10 05:20:12;;;;;;;5.67;4.43;;;;;;;;;;5073223;28;20228;-63
2021/10/10 05:22:44;;;;;;;5.60;5.10;;;;;;;;;;5071161;28;20770;-63
2021/10/10 05:25:17;;;;;;;5.00;4.60;;;;;;;;;;5085184;28;20623;-63
2021/10/10 05:27:48;;;;;;;5.37;4.87;;;;;;;;;;5073836;28;20198;-63
2021/10/10 05:30:20;;;;;;;5.13;4.63;;;;;;;;;;5088891;28;20255;-63
2021/10/10 05:32:47;;;;;;;4.73;4.33;;;;;;;;;;5082506;28;20284;-63
2021/10/10 05:35:18;;;;;;;4.77;4.37;;;;;;;;;;5088398;28;20209;-63
2021/10/10 05:37:52;;;;;;;5.50;4.87;;;;;;;;;;5072191;28;20186;-63
2021/10/10 05:40:20;;;;;;;5.30;4.87;;;;;;;;;;5068098;28;20765;-63
2021/10/10 05:43:06;;;;;;;5.20;4.70;;;;;;;;;;5074867;28;20645;-65
2021/10/10 05:46:01;;;;;;;4.70;4.30;;;;;;;;;;5066011;28;20197;-64
2021/10/10 05:48:33;;;;;;;4.60;4.20;;;;;;;;;;5086873;28;20209;-64
2021/10/10 05:51:02;;;;;;;4.90;4.50;;;;;;;;;;5062521;28;20189;-64
2021/10/10 05:53:44;;;;;;;4.63;4.23;;;;;;;;;;5085979;28;20204;-63
2021/10/10 05:56:17;;;;;;;4.40;4.00;;;;;;;;;;5074746;28;20217;-63
2021/10/10 05:59:07;;;;;;;4.27;3.87;;;;;;;;;;5086984;28;20358;-63
2021/10/10 06:01:46;;;;;;;4.70;4.30;;;;;;;;;;5088023;28;20193;-65
2021/10/10 06:04:23;;;;;;;4.80;4.40;;;;;;;;;;5097399;28;20253;-65
2021/10/10 06:06:55;;;;;;;4.03;3.73;;;;;;;;;;5095026;28;20329;-65
2021/10/10 06:09:27;;;;;;;4.10;3.80;;;;;;;;;;5072208;28;20228;-65
2021/10/10 06:11:56;;;;;;;4.73;4.33;;;;;;;;;;5088884;28;20197;-65
2021/10/10 06:14:28;;;;;;;3.93;3.63;;;;;;;;;;5104198;28;20200;-65
2021/10/10 06:16:58;;;;;;;3.90;3.60;;;;;;;;;;5092177;28;20197;-65
2021/10/10 06:19:30;;;;;;;3.93;3.63;;;;;;;;;;5073423;28;20224;-65
2021/10/10 06:21:58;;;;;;;4.27;3.97;;;;;;;;;;5104174;27;20599;-63
2021/10/10 06:24:30;;;;;;;3.73;3.43;;;;;;;;;;5072357;28;20633;-65
2021/10/10 06:27:06;;;;;;;3.87;3.57;;;;;;;;;;5090956;28;20192;-63
2021/10/10 06:29:43;;;;;;;4.00;3.70;;;;;;;;;;5075427;28;20679;-63
2021/10/10 06:32:17;;;;;;;3.80;3.50;;;;;;;;;;5082007;28;20209;-64
2021/10/10 06:34:50;;;;;;;4.43;4.03;;;;;;;;;;5068575;28;20197;-64
2021/10/10 06:37:21;;;;;;;4.00;3.60;;;;;;;;;;5082901;28;20198;-64
2021/10/10 06:39:53;;;;;;;4.03;3.73;;;;;;;;;;5081964;28;20213;-64
2021/10/10 06:42:23;;;;;;;3.70;3.40;;;;;;;;;;5073289;28;20200;-64
2021/10/10 06:44:59;;;;;;;3.80;3.50;;;;;;;;;;5083720;27;20564;-64
2021/10/10 06:47:43;;;;;;;4.00;3.70;;;;;;;;;;5074807;28;20201;-63
2021/10/10 06:50:11;;;;;;;3.70;3.40;;;;;;;;;;5090779;28;21660;-64
2021/10/10 06:52:41;;;;;;;3.87;3.57;;;;;;;;;;5095695;27;20291;-64
2021/10/10 06:55:10;;;;;;;3.80;3.50;;;;;;;;;;5088834;28;20276;-63
2021/10/10 06:57:45;;;;;;;3.53;3.23;;;;;;;;;;5088714;28;20197;-63
2021/10/10 07:00:24;;;;;;;3.67;3.37;;;;;;;;;;5070937;28;20221;-63
2021/10/10 07:02:55;;;;;;;3.40;3.10;;;;;;;;;;5080366;28;20192;-63
2021/10/10 07:05:28;;;;;;;3.73;3.43;;;;;;;;;;5067206;28;20190;-63
2021/10/10 07:07:59;;;;;;;4.73;3.20;;;;;;;;;;5065385;28;20271;-63
2021/10/10 07:10:43;;;;;;;3.57;3.27;;;;;;;;;;5065832;28;20273;-63
2021/10/10 07:13:14;;;;;;;3.67;3.37;;;;;;;;;;5074712;28;20205;-65
2021/10/10 07:15:46;;;;;;;3.80;3.50;;;;;;;;;;5061537;28;20787;-63
2021/10/10 07:18:22;;;;;;;3.73;3.43;;;;;;;;;;5069418;28;20197;-63
2021/10/10 07:21:20;;;;;;;3.70;3.40;;;;;;;;;;5061714;28;20204;-63
2021/10/10 07:26:41;;;;;;;3.70;3.40;;;;;;;;;;5052195;28;20193;-64
2021/10/10 07:29:11;;;;;;;3.93;3.53;;;;;;;;;;5062364;28;20293;-64
2021/10/10 07:31:42;;;;;;;5.90;2.83;;;;;;;;;;5042592;28;20296;-64
2021/10/10 07:34:12;;;;;;;3.40;3.10;;;;;;;;;;5070941;28;20219;-64
2021/10/10 07:36:45;;;;;;;3.43;3.13;;;;;;;;;;5068188;28;20194;-63
2021/10/10 07:39:15;;;;;;;3.40;3.13;;;;;;;;;;5054037;28;20548;-64
2021/10/10 07:41:47;;;;;;;3.40;3.10;;;;;;;;;;5069870;28;20228;-63
2021/10/10 07:44:18;;;;;;;2.90;2.70;;;;;;;;;;5065088;28;20221;-63
2021/10/10 07:49:42;;;;;;;3.67;3.37;;;;;;;;;;5060679;28;20252;-63
2021/10/10 07:52:13;;;;;;;3.37;3.07;;;;;;;;;;5053245;28;20198;-66
2021/10/10 07:54:44;;;;;;;3.07;2.87;;;;;;;;;;5046039;28;20202;-64
2021/10/10 07:57:12;;;;;;;3.57;3.27;;;;;;;;;;5050533;28;20635;-64
2021/10/10 07:59:44;;;;;;;3.23;2.93;;;;;;;;;;5067469;28;20244;-64
2021/10/10 08:02:15;;;;;;;3.00;2.80;;;;;;;;;;5057071;28;20300;-64
2021/10/10 08:04:45;;;;;;;3.17;2.87;;;;;;;;;;5066486;28;20214;-64
2021/10/10 08:07:18;;;;;;;5.03;3.20;;;;;;;;;;5071625;28;20228;-63
2021/10/10 08:09:50;;;;;;;5.17;3.40;;;;;;;;;;5073924;28;20213;-63
2021/10/10 08:12:21;;;;;;;6.23;3.90;;;;;;;;;;5069268;28;20205;-64
2021/10/10 08:14:53;;;;;;;4.27;3.87;;;;;;;;;;5069555;28;20200;-64
2021/10/10 08:17:24;;;;;;;6.03;3.20;;;;;;;;;;5067062;28;20822;-64
2021/10/10 08:19:53;;;;;;;3.97;3.60;;;;;;;;;;5042593;28;20205;-64
2021/10/10 08:22:24;;;;;;;3.47;3.20;;;;;;;;;;5065776;28;20213;-64
2021/10/10 08:24:53;;;;;;;3.90;3.50;;;;;;;;;;5045735;28;20664;-64
2021/10/10 08:27:29;;;;;;;3.70;3.40;;;;;;;;;;5068127;28;20197;-63
2021/10/10 08:30:00;;;;;;;3.60;3.30;;;;;;;;;;5065415;28;20218;-63
2021/10/10 08:32:27;;;;;;;3.70;3.30;;;;;;;;;;5062579;28;20213;-64
2021/10/10 08:34:57;;;;;;;3.67;3.37;;;;;;;;;;5062097;28;20197;-64
2021/10/10 08:37:27;;;;;;;4.67;3.63;;;;;;;;;;5077233;28;20699;-64
2021/10/10 08:40:00;;;;;;;4.00;3.70;;;;;;;;;;5069329;28;20186;-64
2021/10/10 08:42:33;;;;;;;5.80;3.70;;;;;;;;;;5050443;28;20197;-64
2021/10/10 08:45:08;;;;;;;5.27;3.40;;;;;;;;;;5047697;28;20506;-64
2021/10/10 08:47:54;;;;;;;4.37;3.53;;;;;;;;;;5061315;28;20637;-65
2021/10/10 08:50:29;;;;;;;4.67;4.00;;;;;;;;;;5059766;28;20246;-64
2021/10/10 08:53:00;;;;;;;6.63;4.13;;;;;;;;;;5086664;28;20596;-64
2021/10/10 08:55:42;;;;;;;5.27;4.10;;;;;;;;;;5064248;28;20221;-64
2021/10/10 08:58:20;;;;;;;6.63;4.27;;;;;;;;;;5064895;28;20226;-64
2021/10/10 09:01:01;;;;;;;6.33;4.57;;;;;;;;;;5060521;28;20197;-62
2021/10/10 09:03:32;;;;;;;8.73;5.50;;;;;;;;;;5065127;28;20251;-63
2021/10/10 09:06:06;;;;;;;7.97;4.73;;;;;;;;;;5066023;28;20213;-64
2021/10/10 09:08:39;;;;;;;8.90;4.23;;;;;;;;;;5059043;28;20267;-64
2021/10/10 09:11:09;;;;;;;6.27;5.23;;;;;;;;;;5066577;28;20230;-63
2021/10/10 09:13:42;;;;;;;5.33;4.47;;;;;;;;;;5060490;28;20194;-63
2021/10/10 09:16:17;;;;;;;5.33;4.30;;;;;;;;;;5049253;28;20221;-64
2021/10/10 09:18:54;;;;;;;6.60;4.97;;;;;;;;;;5057271;28;20198;-64
2021/10/10 09:21:26;;;;;;;6.50;5.13;;;;;;;;;;5062318;28;20201;-63
2021/10/10 09:23:58;;;;;;;5.20;4.70;;;;;;;;;;5036222;28;20191;-63
2021/10/10 09:26:42;;;;;;;9.03;5.10;;;;;;;;;;5065141;28;20686;-63
2021/10/10 09:29:30;;;;;;;7.97;5.03;;;;;;;;;;5054237;28;20201;-63
2021/10/10 09:32:08;;;;;;;6.47;4.87;;;;;;;;;;5048981;28;20217;-64
2021/10/10 09:34:38;;;;;;;7.10;5.40;;;;;;;;;;5054570;28;20201;-64
2021/10/10 09:37:32;;;;;;;7.27;5.87;;;;;;;;;;5067761;28;20829;-64
2021/10/10 09:40:25;;;;;;;6.83;5.60;;;;;;;;;;5057761;28;20573;-65
2021/10/10 09:43:02;;;;;;;8.90;6.00;;;;;;;;;;5046384;28;20213;-64
2021/10/10 09:48:29;;;;;;;6.40;5.77;;;;;;;;;;5058455;28;20673;-64
2021/10/10 09:51:05;;;;;;;7.07;6.37;;;;;;;;;;5046980;28;20229;-63
2021/10/10 09:53:36;;;;;;;7.03;6.43;;;;;;;;;;5072765;28;20765;-63
2021/10/10 09:56:11;;;;;;;6.97;6.23;;;;;;;;;;5044881;28;20206;-64
2021/10/10 09:58:42;;;;;;;7.77;6.97;;;;;;;;;;5063281;28;20260;-64
2021/10/10 10:01:20;;;;;;;7.20;6.50;;;;;;;;;;5048010;28;20236;-64
2021/10/10 10:04:07;;;;;;;7.53;6.73;;;;;;;;;;5061190;28;20209;-65
2021/10/10 10:06:43;;;;;;;7.70;6.90;;;;;;;;;;5058884;28;20193;-63
2021/10/10 10:09:15;;;;;;;7.93;6.70;;;;;;;;;;5067989;28;20212;-64
2021/10/10 10:11:48;;;;;;;7.60;6.90;;;;;;;;;;5054807;28;20232;-63
2021/10/10 10:14:28;;;;;;;8.87;7.00;;;;;;;;;;5070112;28;20259;-63
2021/10/10 10:17:00;;;;;;;8.77;7.90;;;;;;;;;;5062890;28;20237;-64
2021/10/10 10:19:32;;;;;;;8.90;6.90;;;;;;;;;;5056775;28;20234;-64
2021/10/10 10:22:04;;;;;;;8.00;7.30;;;;;;;;;;5061330;28;20206;-62
2021/10/10 10:24:36;;;;;;;7.83;7.13;;;;;;;;;;5041148;28;20198;-63
2021/10/10 10:27:08;;;;;;;8.37;7.63;;;;;;;;;;5061759;28;20209;-62
2021/10/10 10:29:44;;;;;;;9.43;8.53;;;;;;;;;;5057675;28;20640;-63
2021/10/10 10:32:14;;;;;;;8.90;8.10;;;;;;;;;;5062092;28;20600;-62
2021/10/10 10:34:58;;;;;;;7.93;7.13;;;;;;;;;;5033986;28;20302;-62
2021/10/10 10:37:49;;;;;;;8.47;7.63;;;;;;;;;;5064917;28;20205;-62
2021/10/10 10:40:30;;;;;;;9.33;8.43;;;;;;;;;;5057690;28;20193;-62
2021/10/10 10:43:04;;;;;;;9.13;8.23;;;;;;;;;;5060379;28;20210;-62
2021/10/10 10:45:33;;;;;;;10.00;9.00;;;;;;;;;;5051997;28;20630;-65
2021/10/10 10:48:08;;;;;;;9.33;8.43;;;;;;;;;;5069161;28;20202;-64
2021/10/10 10:50:42;;;;;;;9.23;8.33;;;;;;;;;;5049003;28;20224;-62
2021/10/10 10:53:20;;;;;;;9.60;8.70;;;;;;;;;;5039388;28;20197;-62
2021/10/10 10:55:56;;;;;;;9.63;8.73;;;;;;;;;;5068005;28;20213;-63
2021/10/10 10:58:44;;;;;;;9.97;8.97;;;;;;;;;;5039424;28;20185;-63
2021/10/10 11:01:15;;;;;;;9.70;8.73;;;;;;;;;;5061934;28;20216;-65
2021/10/10 11:03:49;;;;;;;9.63;8.73;;;;;;;;;;5060138;28;20673;-64
2021/10/10 11:06:21;;;;;;;10.83;9.83;;;;;;;;;;5050994;28;20227;-64
2021/10/10 11:09:05;;;;;;;11.20;10.13;;;;;;;;;;5071454;28;20214;-63
2021/10/10 11:11:32;;;;;;;11.43;10.33;;;;;;;;;;5049053;28;20214;-65
2021/10/10 11:14:19;;;;;;;11.60;10.40;;;;;;;;;;5063485;28;20216;-65
2021/10/10 11:17:03;;;;;;;11.63;10.33;;;;;;;;;;5049168;28;20537;-66
2021/10/10 11:19:32;;;;;;;12.70;9.73;;;;;;;;;;5062644;28;20647;-65
2021/10/10 11:22:03;;;;;;;11.23;10.03;;;;;;;;;;5068265;28;20204;-66
2021/10/10 11:24:34;;;;;;;11.37;10.30;;;;;;;;;;5063007;28;20202;-65
2021/10/10 11:27:10;;;;;;;10.53;9.53;;;;;;;;;;5059816;28;20694;-64
2021/10/10 11:29:52;;;;;;;11.23;10.13;;;;;;;;;;5068623;28;20255;-64
2021/10/10 11:32:25;;;;;;;11.57;10.47;;;;;;;;;;5066290;28;21609;-64
2021/10/10 11:34:58;;;;;;;11.50;10.40;;;;;;;;;;5056678;28;20210;-64
2021/10/10 11:37:31;;;;;;;11.43;10.30;;;;;;;;;;5065853;28;20198;-64
2021/10/10 11:40:10;;;;;;;11.67;10.57;;;;;;;;;;5062419;28;20228;-64
2021/10/10 11:42:38;;;;;;;16.33;12.47;;;;;;;;;;5049166;28;20193;-65
2021/10/10 11:45:06;;;;;;;13.83;12.57;;;;;;;;;;5044913;28;20202;-64
2021/10/10 11:47:57;;;;;;;15.00;13.50;;;;;;;;;;5068848;28;20206;-63
2021/10/10 11:50:32;;;;;;;14.97;12.90;;;;;;;;;;5067361;28;20238;-64
2021/10/10 11:53:04;;;;;;;14.70;13.20;;;;;;;;;;5045671;28;20220;-63
2021/10/10 11:55:48;;;;;;;17.80;13.93;;;;;;;;;;5052358;28;20293;-63
2021/10/10 11:58:21;;;;;;;13.97;12.20;;;;;;;;;;5059569;28;20212;-63
2021/10/10 12:00:52;;;;;;;13.83;12.47;;;;;;;;;;5056107;28;20205;-63
2021/10/10 12:03:25;;;;;;;13.47;12.07;;;;;;;;;;5066630;28;20785;-63
2021/10/10 12:05:57;;;;;;;13.07;11.13;;;;;;;;;;5077890;28;20882;-62
2021/10/10 12:08:28;;;;;;;14.50;12.20;;;;;;;;;;5044181;28;20834;-63
2021/10/10 12:11:10;;;;;;;12.63;11.40;;;;;;;;;;5059139;28;20232;-62
2021/10/10 12:13:56;;;;;;;12.87;11.67;;;;;;;;;;5042952;28;20477;-63
2021/10/10 12:16:26;;;;;;;12.90;11.40;;;;;;;;;;5046675;28;20299;-64
2021/10/10 12:19:00;;;;;;;13.97;12.50;;;;;;;;;;5056914;28;20190;-64
2021/10/10 12:21:32;;;;;;;13.50;12.13;;;;;;;;;;5065760;28;20204;-63
2021/10/10 12:24:13;;;;;;;13.53;12.23;;;;;;;;;;5063294;28;20911;-63
2021/10/10 12:27:02;;;;;;;13.30;11.90;;;;;;;;;;5052777;28;20198;-63
2021/10/10 12:29:33;;;;;;;11.67;10.57;;;;;;;;;;5047711;28;20197;-63
2021/10/10 12:32:23;;;;;;;12.40;11.17;;;;;;;;;;5046678;28;20316;-64
2021/10/10 12:35:17;;;;;;;11.70;10.53;;;;;;;;;;5062841;28;20703;-63
2021/10/10 12:37:55;;;;;;;13.27;11.97;;;;;;;;;;5054441;28;20201;-63
2021/10/10 12:40:36;;;;;;;12.60;11.30;;;;;;;;;;5073760;28;20191;-63
2021/10/10 12:43:05;;;;;;;15.50;12.93;;;;;;;;;;5043625;28;20252;-63
2021/10/10 12:45:35;;;;;;;11.80;10.70;;;;;;;;;;5064637;28;20193;-63
2021/10/10 12:48:06;;;;;;;11.90;10.80;;;;;;;;;;5064921;28;20332;-63
2021/10/10 12:50:49;;;;;;;11.30;10.20;;;;;;;;;;5044747;28;20241;-63
2021/10/10 12:53:35;;;;;;;11.87;10.67;;;;;;;;;;5062307;28;20268;-63
2021/10/10 12:56:25;;;;;;;11.53;10.43;;;;;;;;;;5042491;28;20220;-64
2021/10/10 12:58:58;;;;;;;11.03;9.93;;;;;;;;;;5062927;28;20229;-64
2021/10/10 13:01:32;;;;;;;11.17;10.07;;;;;;;;;;5043860;28;20209;-63
2021/10/10 13:04:15;;;;;;;11.77;10.67;;;;;;;;;;5054949;28;20506;-62
2021/10/10 13:06:50;;;;;;;12.33;11.13;;;;;;;;;;5055634;28;20270;-63
2021/10/10 13:09:24;;;;;;;11.13;10.03;;;;;;;;;;5055382;28;20300;-63
2021/10/10 13:12:05;;;;;;;12.00;10.90;;;;;;;;;;5072391;28;20214;-63
2021/10/10 13:14:35;;;;;;;12.23;11.13;;;;;;;;;;5067876;28;20197;-63
2021/10/10 13:17:04;;;;;;;12.37;11.13;;;;;;;;;;5070488;28;20512;-63
2021/10/10 13:19:54;;;;;;;11.73;10.53;;;;;;;;;;5037070;28;20523;-63
2021/10/10 13:22:33;;;;;;;10.67;9.67;;;;;;;;;;5060759;28;20210;-63
2021/10/10 13:25:06;;;;;;;11.03;9.87;;;;;;;;;;5063117;28;20197;-63
2021/10/10 13:27:37;;;;;;;11.50;10.40;;;;;;;;;;5063802;28;20888;-63
2021/10/10 13:30:12;;;;;;;11.27;10.07;;;;;;;;;;5064735;28;20245;-63
2021/10/10 13:32:39;;;;;;;11.30;10.03;;;;;;;;;;5060051;28;20224;-63
2021/10/10 13:35:09;;;;;;;11.13;10.13;;;;;;;;;;5064810;28;20213;-63
2021/10/10 13:37:40;;;;;;;12.63;11.33;;;;;;;;;;5045000;28;20208;-63
2021/10/10 13:40:11;;;;;;;13.03;10.80;;;;;;;;;;5065976;28;20284;-64
2021/10/10 13:42:44;;;;;;;12.50;11.37;;;;;;;;;;5041818;28;20206;-63
2021/10/10 13:45:13;;;;;;;11.57;10.57;;;;;;;;;;5061549;28;20209;-63
2021/10/10 13:47:46;;;;;;;11.23;10.00;;;;;;;;;;5059406;28;20210;-63
2021/10/10 13:50:17;;;;;;;34.27;16.37;;;;;;;;;;5067054;28;20205;-62
2021/10/10 13:52:45;;;;;;;39.33;16.33;;;;;;;;;;5058910;28;20217;-63
2021/10/10 13:55:15;;;;;;;29.77;14.53;;;;;;;;;;5048551;28;20243;-62
2021/10/10 13:57:47;;;;;;;24.50;13.27;;;;;;;;;;5063650;28;20565;-62
2021/10/10 14:00:17;;;;;;;23.77;13.10;;;;;;;;;;5051120;28;20238;-63
2021/10/10 14:02:47;;;;;;;19.10;13.57;;;;;;;;;;5049366;28;20205;-63
2021/10/10 14:05:17;;;;;;;17.30;13.57;;;;;;;;;;5048039;28;20263;-62
2021/10/10 14:07:47;;;;;;;17.73;12.23;;;;;;;;;;5054381;28;20683;-62
2021/10/10 14:10:19;;;;;;;14.33;10.63;;;;;;;;;;5065468;28;20276;-62
2021/10/10 14:12:49;;;;;;;17.03;12.03;;;;;;;;;;5060813;28;20209;-62
2021/10/10 14:15:21;;;;;;;16.03;11.20;;;;;;;;;;5065398;28;20496;-62
2021/10/10 14:17:52;;;;;;;13.50;10.37;;;;;;;;;;5063469;28;20214;-62
2021/10/10 14:20:21;;;;;;;15.63;12.63;;;;;;;;;;5064980;28;20303;-62
2021/10/10 14:22:54;;;;;;;13.70;11.87;;;;;;;;;;5073883;28;20201;-62
2021/10/10 14:25:22;;;;;;;14.27;11.57;;;;;;;;;;5071004;28;20201;-63
2021/10/10 14:27:54;;;;;;;13.27;11.00;;;;;;;;;;5072250;28;20225;-63
2021/10/10 14:30:25;;;;;;;12.67;11.37;;;;;;;;;;5056443;28;20197;-63
2021/10/10 14:32:55;;;;;;;13.80;11.20;;;;;;;;;;5061544;28;20943;-63
2021/10/10 14:35:27;;;;;;;12.10;10.90;;;;;;;;;;5066648;28;20289;-63
2021/10/10 14:37:59;;;;;;;12.00;10.80;;;;;;;;;;5052694;28;20194;-63
2021/10/10 14:40:56;;;;;;;12.30;10.87;;;;;;;;;;5064120;28;20285;-63
2021/10/10 14:43:31;;;;;;;11.37;10.17;;;;;;;;;;5066089;28;20335;-63
2021/10/10 14:46:06;;;;;;;13.23;11.83;;;;;;;;;;5067769;28;20476;-63
2021/10/10 14:48:34;;;;;;;11.87;10.43;;;;;;;;;;5068939;28;20193;-63
2021/10/10 14:51:02;;;;;;;12.00;10.80;;;;;;;;;;5065986;28;20228;-63
2021/10/10 14:53:33;;;;;;;12.10;10.90;;;;;;;;;;5049863;28;20194;-63
2021/10/10 14:56:04;;;;;;;13.40;9.93;;;;;;;;;;5051763;28;20218;-63
2021/10/10 14:58:38;;;;;;;13.87;11.33;;;;;;;;;;5069527;28;20201;-63
2021/10/10 15:01:13;;;;;;;12.57;11.37;;;;;;;;;;5072279;28;20224;-63
2021/10/10 15:03:44;;;;;;;13.27;11.87;;;;;;;;;;5062720;28;20285;-63
2021/10/10 15:06:15;;;;;;;12.33;10.93;;;;;;;;;;5067519;28;20210;-64
2021/10/10 15:08:48;;;;;;;12.70;10.83;;;;;;;;;;5059546;28;20229;-63
2021/10/10 15:11:17;;;;;;;11.77;10.10;;;;;;;;;;5059081;28;20229;-64
2021/10/10 15:13:48;;;;;;;11.30;9.97;;;;;;;;;;5064649;28;20190;-64
2021/10/10 15:16:20;;;;;;;12.27;11.07;;;;;;;;;;5064366;28;20650;-63
2021/10/10 15:18:54;;;;;;;10.53;9.43;;;;;;;;;;5059867;28;20661;-63
2021/10/10 15:21:26;;;;;;;10.77;9.67;;;;;;;;;;5077940;28;20220;-63
2021/10/10 15:24:00;;;;;;;11.80;10.60;;;;;;;;;;5064496;28;20205;-63